Time;durP1;ratioP1;P1;durP2;ratioP2;P2;SDS_P1;SDS_P2;PMS_P1;PMS_P2;Temp;Humidity;BMP_temperature;BMP_pressure;BME280_temperature;BME280_humidity;BME280_pressure;Samples;Min_cycle;Max_cycle;Signal;HPM_P1;HPM_P2
2023/11/11 00:02:08;;;;;;;1.53;0.67;;;;;;;;;;5021576;28;20046;-78
2023/11/11 00:04:48;;;;;;;0.50;0.50;;;;;;;;;;5025514;28;20041;-77
2023/11/11 00:07:17;;;;;;;0.90;0.50;;;;;;;;;;5035150;28;20014;-77
2023/11/11 00:09:46;;;;;;;2.10;1.40;;;;;;;;;;5017578;28;20018;-79
2023/11/11 00:12:12;;;;;;;3.77;0.90;;;;;;;;;;5028695;28;20013;-78
2023/11/11 00:14:41;;;;;;;1.83;1.00;;;;;;;;;;5023753;28;20006;-78
2023/11/11 00:17:07;;;;;;;5.17;1.70;;;;;;;;;;5031631;28;20018;-77
2023/11/11 00:19:38;;;;;;;4.40;2.20;;;;;;;;;;5013328;28;20040;-79
2023/11/11 00:22:06;;;;;;;7.83;3.10;;;;;;;;;;5014316;28;20038;-78
2023/11/11 00:24:42;;;;;;;8.20;3.20;;;;;;;;;;5031245;28;20042;-78
2023/11/11 00:27:28;;;;;;;;;;;;;;;;;;;;;
2023/11/11 00:30:13;;;;;;;9.83;3.70;;;;;;;;;;5014311;28;20047;-80
2023/11/11 00:32:50;;;;;;;8.83;3.53;;;7.00;99.90;;;;;;5030140;28;20030;-78
2023/11/11 00:35:17;;;;;;;10.23;4.50;;;;;;;;;;5013412;28;20011;-78
2023/11/11 00:37:50;;;;;;;10.97;5.73;;;;;;;;;;5013880;28;20041;-79
2023/11/11 00:40:18;;;;;;;9.43;4.43;;;;;;;;;;5029261;28;20058;-79
2023/11/11 00:42:54;;;;;;;12.93;5.23;;;;;;;;;;5015412;28;20065;-78
2023/11/11 00:45:28;;;;;;;12.87;5.47;;;;;;;;;;5014062;28;20115;-79
2023/11/11 00:48:07;;;;;;;;;;;;;;;;;;;;;
2023/11/11 00:50:33;;;;;;;15.37;7.70;;;;;;;;;;5015248;28;20034;-79
2023/11/11 00:53:04;;;;;;;24.37;12.27;;;;;;;;;;5030740;28;20053;-80
2023/11/11 00:55:43;;;;;;;;;;;;;;;;;;;;;
2023/11/11 00:58:18;;;;;;;43.47;17.50;;;;;;;;;;5015548;28;20034;-79
2023/11/11 01:00:50;;;;;;;39.13;17.70;;;;;;;;;;5028552;28;20057;-79
2023/11/11 01:03:16;;;;;;;42.95;19.98;;;;;;;;;;5030151;28;20062;-79
2023/11/11 01:05:42;;;;;;;46.27;20.57;;;;;;;;;;5011009;28;20026;-79
2023/11/11 01:08:30;;;;;;;48.63;22.27;;;;;;;;;;5011762;28;20025;-80
2023/11/11 01:10:57;;;;;;;52.80;22.63;;;;;;;;;;5030418;28;20033;-79
2023/11/11 01:13:28;;;;;;;48.47;23.23;;;;;;;;;;5011526;28;20041;-79
2023/11/11 01:18:53;;;;;;;60.27;25.13;;;;;;;;;;4986425;28;20038;-79
2023/11/11 01:21:40;;;;;;;61.03;27.83;;;;;;;;;;5013671;28;20026;-79
2023/11/11 01:24:09;;;;;;;52.27;26.20;;;;;;;;;;5010054;28;20157;-79
2023/11/11 01:26:36;;;;;;;58.70;26.90;;;;;;;;;;5007893;28;20049;-79
2023/11/11 01:29:15;;;;;;;;;;;;;;;;;;;;;
2023/11/11 01:31:54;;;;;;;;;;;;;;;;;;;;;
2023/11/11 01:34:20;;;;;;;64.77;30.37;;;;;;;;;;5014578;28;20053;-79
2023/11/11 01:39:56;;;;;;;61.97;29.37;;;;;;;;;;4996330;28;20033;-80
2023/11/11 01:42:22;;;;;;;64.03;30.73;;;;;;;;;;5005781;28;20026;-78
2023/11/11 01:44:57;;;;;;;67.83;31.67;;;;;;;;;;5029063;28;20101;-79
2023/11/11 01:50:40;;;;;;;67.37;29.00;;;;;;;;;;5007658;28;20026;-79
2023/11/11 01:53:33;;;;;;;60.27;29.67;;;;;;;;;;5030035;28;20038;-79
2023/11/11 01:55:59;;;;;;;65.80;31.35;;;;;;;;;;5012385;28;20030;-78
2023/11/11 01:58:30;;;;;;;67.23;30.47;;;;;;;;;;5012302;28;20045;-78
2023/11/11 02:01:22;;;;;;;;;;;;;;;;;;;;;
2023/11/11 02:03:50;;;;;;;61.97;30.23;;;;;;;;;;5013311;28;21128;-79
2023/11/11 02:06:47;;;;;;;66.00;31.47;;;;;;;;;;5011347;28;20039;-79
2023/11/11 02:09:15;;;;;;;63.87;29.33;;;;;;;;;;5013591;28;20126;-79
2023/11/11 02:11:55;;;;;;;61.07;28.07;;;;;;;;;;5008332;28;20007;-79
2023/11/11 02:14:24;;;;;;;61.57;29.03;;;;;;;;;;5013179;28;20034;-79
2023/11/11 02:16:50;;;;;;;62.17;30.33;;;;;;;;;;5029281;28;20025;-79
2023/11/11 02:19:24;;;;;;;61.40;27.40;;;;;;;;;;5013303;28;20038;-79
2023/11/11 02:22:00;;;;;;;55.57;24.70;;;;;;;;;;5013292;28;20103;-79
2023/11/11 02:24:40;;;;;;;;;;;;;;;;;;;;;
2023/11/11 02:27:24;;;;;;;44.77;20.73;;;;;;;;;;5013420;28;20057;-79
2023/11/11 02:30:15;;;;;;;47.57;20.10;;;;;;;;;;5029219;28;20023;-78
2023/11/11 02:35:32;;;;;;;42.53;19.50;;;;;;;;;;4999660;28;20078;-79
2023/11/11 02:37:58;;;;;;;36.77;17.10;;;;;;;;;;5028856;28;20019;-79
2023/11/11 02:40:42;;;;;;;;;;;;;;;;;;;;;
2023/11/11 02:43:20;;;;;;;43.67;17.97;;;;;;;;;;5012598;28;20038;-79
2023/11/11 02:45:49;;;;;;;42.23;18.63;;;;;;;;;;5012474;28;20022;-79
2023/11/11 02:48:15;;;;;;;43.57;17.80;;;;;;;;;;5027370;28;20037;-79
2023/11/11 02:50:41;;;;;;;44.97;18.27;;;;;;;;;;5012206;28;20033;-79
2023/11/11 02:53:07;;;;;;;44.97;20.10;;;;;;;;;;5011781;28;20037;-78
2023/11/11 02:55:41;;;;;;;50.73;20.50;;;;;;;;;;5012440;28;20038;-78
2023/11/11 02:58:15;;;;;;;49.97;21.10;;;;;;;;;;5025645;28;20011;-79
2023/11/11 03:00:43;;;;;;;47.73;19.63;;;;;;;;;;5009247;28;20030;-77
2023/11/11 03:03:09;;;;;;;48.40;19.90;;;;;;;;;;5015252;28;20053;-79
2023/11/11 03:05:35;;;;;;;48.57;20.13;;;;;;;;;;5030977;28;20014;-79
2023/11/11 03:08:02;;;;;;;47.73;19.60;;;;;;;;;;5013103;28;20042;-79
2023/11/11 03:10:32;;;;;;;52.80;20.83;;;;;;;;;;5016280;28;20044;-78
2023/11/11 03:13:01;;;;;;;45.20;20.97;;;;;;;;;;5031152;28;20011;-79
2023/11/11 03:15:30;;;;;;;49.53;20.67;;;;;;;;;;5014451;28;20018;-79
2023/11/11 03:17:58;;;;;;;53.97;23.23;;;;;;;;;;5012202;28;20023;-79
2023/11/11 03:20:24;;;;;;;53.97;22.47;;;;;;;;;;5013651;28;20015;-79
2023/11/11 03:22:58;;;;;;;49.90;22.00;;;;;;;;;;5015769;28;20037;-79
2023/11/11 03:25:27;;;;;;;46.30;20.70;;;;;;;;;;5015866;28;20054;-79
2023/11/11 03:27:53;;;;;;;50.83;21.17;;;;;;;;;;5015253;28;20037;-79
2023/11/11 03:30:19;;;;;;;44.60;19.73;;;;;;;;;;5028942;28;20030;-78
2023/11/11 03:32:45;;;;;;;40.60;19.00;;;;;;;;;;5015836;28;20030;-78
2023/11/11 03:35:13;;;;;;;39.60;17.97;;;;;;;;;;5015788;28;20022;-78
2023/11/11 03:37:39;;;;;;;40.13;16.20;;;;;;;;;;5030252;28;20045;-80
2023/11/11 03:40:06;;;;;;;47.17;16.83;;;;;;;;;;5031052;28;20026;-79
2023/11/11 03:42:32;;;;;;;36.97;15.50;;;;;;;;;;5029854;28;20038;-79
2023/11/11 03:44:58;;;;;;;33.07;14.73;;;;;;;;;;5015649;28;20034;-78
2023/11/11 03:47:24;;;;;;;30.10;13.93;;;;;;;;;;5015276;28;20019;-78
2023/11/11 03:49:50;;;;;;;26.97;12.77;;;;;;;;;;5015280;28;20081;-79
2023/11/11 03:52:17;;;;;;;30.37;11.73;;;;;;;;;;5013670;28;20069;-79
2023/11/11 03:54:43;;;;;;;27.17;11.77;;;;;;;;;;5014645;28;20027;-79
2023/11/11 03:57:09;;;;;;;21.50;10.47;;;;;;;;;;5011677;28;20022;-79
2023/11/11 03:59:35;;;;;;;47.73;13.40;;;;;;;;;;5031217;28;20246;-78
2023/11/11 04:02:03;;;;;;;22.93;9.97;;;;;;;;;;5014997;28;20090;-77
2023/11/11 04:04:32;;;;;;;21.27;8.87;;;;;;;;;;5031197;28;20034;-77
2023/11/11 04:06:58;;;;;;;19.17;8.50;;;;;;;;;;5014503;28;20006;-78
2023/11/11 04:09:24;;;;;;;20.50;8.63;;;;;;;;;;5014787;28;20030;-78
2023/11/11 04:11:53;;;;;;;20.13;8.33;;;;;;;;;;5014330;28;20026;-78
2023/11/11 04:14:19;;;;;;;20.10;7.90;;;;;;;;;;5030486;28;20029;-77
2023/11/11 04:16:45;;;;;;;20.60;9.10;;;;;;;;;;5027017;28;20018;-79
2023/11/11 04:19:11;;;;;;;18.17;6.63;;;;;;;;;;5014666;28;20026;-78
2023/11/11 04:21:37;;;;;;;12.27;6.40;;;;;;;;;;5028764;28;20046;-77
2023/11/11 04:24:03;;;;;;;18.30;7.53;;;;;;;;;;5014954;28;20037;-78
2023/11/11 04:26:29;;;;;;;14.07;6.37;;;;;;;;;;5015204;28;20042;-78
2023/11/11 04:28:55;;;;;;;18.07;7.43;;;;;;;;;;5030137;28;20030;-77
2023/11/11 04:31:23;;;;;;;12.80;5.97;;;;;;;;;;5030365;28;20019;-78
2023/11/11 04:33:55;;;;;;;15.73;6.93;;;;;;;;;;5030050;28;20039;-78
2023/11/11 04:36:22;;;;;;;14.23;7.27;;;;;;;;;;5014916;28;20026;-78
2023/11/11 04:38:51;;;;;;;12.77;6.33;;;;;;;;;;5028167;28;20011;-78
2023/11/11 04:41:20;;;;;;;13.27;5.53;;;;;;;;;;5029823;28;20037;-78
2023/11/11 04:43:50;;;;;;;16.43;6.50;;;;;;;;;;5035921;28;20030;-79
2023/11/11 04:46:17;;;;;;;9.70;4.90;;;;;;;;;;5012733;28;20019;-79
2023/11/11 04:48:43;;;;;;;10.97;5.90;;;;;;;;;;5016361;28;20038;-78
2023/11/11 04:51:12;;;;;;;13.33;4.67;;;;;;;;;;5036137;28;20011;-79
2023/11/11 04:53:40;;;;;;;12.50;5.13;;;;;;;;;;5018000;28;20018;-78
2023/11/11 04:56:06;;;;;;;12.90;4.53;;;;;;;;;;5018183;28;20019;-76
2023/11/11 04:58:40;;;;;;;8.17;4.30;;;;;;;;;;5017269;28;20021;-77
2023/11/11 05:01:06;;;;;;;10.03;3.60;;;;;;;;;;5018437;28;20097;-81
2023/11/11 05:03:32;;;;;;;10.13;3.27;;;;;;;;;;5019204;28;20038;-78
2023/11/11 05:05:58;;;;;;;10.83;3.70;;;;;;;;;;5012499;28;20030;-80
2023/11/11 05:08:24;;;;;;;8.60;3.37;;;;;;;;;;5019325;28;20006;-80
2023/11/11 05:10:52;;;;;;;9.27;3.33;;;;;;;;;;5019092;28;20038;-80
2023/11/11 05:13:20;;;;;;;7.87;2.83;;;;;;;;;;5020631;28;20014;-79
2023/11/11 05:15:58;;;;;;;8.60;2.77;;;;;;;;;;5019614;28;20021;-79
2023/11/11 05:18:24;;;;;;;11.87;3.00;;;;;;;;;;5011987;28;20084;-78
2023/11/11 05:20:51;;;;;;;11.67;2.70;;;;;;;;;;5017485;28;20053;-80
2023/11/11 05:23:20;;;;;;;8.13;2.93;;;;;;;;;;5017773;28;20030;-77
2023/11/11 05:25:54;;;;;;;6.87;3.00;;;;;;;;;;5019031;28;20038;-78
2023/11/11 05:28:20;;;;;;;11.77;3.17;;;;;;;;;;5019484;28;20094;-78
2023/11/11 05:30:46;;;;;;;9.07;3.93;;;;;;;;;;5018726;28;20030;-79
2023/11/11 05:33:14;;;;;;;13.00;3.43;;;;;;;;;;5013075;28;20019;-77
2023/11/11 05:35:40;;;;;;;10.63;3.77;;;;;;;;;;5014780;28;20010;-80
2023/11/11 05:38:09;;;;;;;11.53;3.93;;;;;;;;;;5012674;28;20030;-81
2023/11/11 05:40:37;;;;;;;12.13;3.77;;;;;;;;;;5035129;28;20009;-79
2023/11/11 05:43:16;;;;;;;;;;;;;;;;;;;;;
2023/11/11 05:45:42;;;;;;;6.97;4.63;;;;;;;;;;5019003;28;20026;-80
2023/11/11 05:48:10;;;;;;;6.80;3.83;;;;;;;;;;5018632;28;20015;-78
2023/11/11 05:50:39;;;;;;;9.87;4.17;;;;;;;;;;5018449;28;20058;-79
2023/11/11 05:53:08;;;;;;;15.73;5.60;;;;;;;;;;5018586;28;20030;-78
2023/11/11 05:55:36;;;;;;;17.07;5.60;;;;;;;;;;5017606;28;20049;-78
2023/11/11 05:58:02;;;;;;;10.90;6.00;;;;;;;;;;5018398;28;20026;-77
2023/11/11 06:00:28;;;;;;;14.70;7.10;;;;;;;;;;5018829;28;20014;-77
2023/11/11 06:02:54;;;;;;;17.67;6.73;;;;;;;;;;5018480;28;20037;-78
2023/11/11 06:05:21;;;;;;;10.83;7.23;;;;;;;;;;5018364;28;20030;-79
2023/11/11 06:07:47;;;;;;;17.43;6.83;;;;;;;;;;5018803;28;20037;-78
2023/11/11 06:10:21;;;;;;;17.13;7.50;;;;;;;;;;5034575;28;20022;-80
2023/11/11 06:12:47;;;;;;;16.23;7.90;;;;;;;;;;5018240;28;20046;-80
2023/11/11 06:15:13;;;;;;;13.23;8.10;;;;;;;;;;5018237;28;20090;-77
2023/11/11 06:17:41;;;;;;;15.97;7.73;;;;;;;;;;5017768;28;20090;-77
2023/11/11 06:20:08;;;;;;;23.13;8.40;;;;;;;;;;5012628;28;20262;-77
2023/11/11 06:22:34;;;;;;;16.50;6.67;;;;;;;;;;5027458;28;20037;-77
2023/11/11 06:25:01;;;;;;;12.30;7.20;;;;;;;;;;5012647;28;20050;-77
2023/11/11 06:27:29;;;;;;;14.93;6.53;;;;;;;;;;5028662;28;20061;-78
2023/11/11 06:29:55;;;;;;;14.77;7.57;;;;;;;;;;5027345;28;20030;-78
2023/11/11 06:32:21;;;;;;;15.70;7.13;;;;;;;;;;5013119;28;20081;-77
2023/11/11 06:34:47;;;;;;;14.37;8.10;;;;;;;;;;5012413;28;20036;-77
2023/11/11 06:37:13;;;;;;;16.20;6.47;;;;;;;;;;5017285;28;20018;-77
2023/11/11 06:39:39;;;;;;;16.93;7.83;;;;;;;;;;5015462;28;20026;-77
2023/11/11 06:42:13;;;;;;;20.13;6.90;;;;;;;;;;5032961;28;20030;-78
2023/11/11 06:44:39;;;;;;;16.10;6.83;;;;;;;;;;5017154;28;20321;-78
2023/11/11 06:47:08;;;;;;;12.77;6.60;;;;;;;;;;5031641;28;20030;-78
2023/11/11 06:49:34;;;;;;;12.10;6.07;;;;;;;;;;5033198;28;20046;-78
2023/11/11 06:52:03;;;;;;;16.43;6.13;;;;;;;;;;5016930;28;20021;-77
2023/11/11 06:54:30;;;;;;;10.93;6.00;;;;;;;;;;5032653;28;20018;-78
2023/11/11 06:56:56;;;;;;;13.87;7.27;;;;;;;;;;5017473;28;20041;-78
2023/11/11 06:59:24;;;;;;;18.53;6.93;;;;;;;;;;5016250;28;20026;-77
2023/11/11 07:01:50;;;;;;;14.27;8.20;;;;;;;;;;5032553;28;20062;-77
2023/11/11 07:04:16;;;;;;;13.57;7.70;;;;;;;;;;5033613;28;20060;-78
2023/11/11 07:06:42;;;;;;;18.20;8.50;;;;;;;;;;5013099;28;20094;-78
2023/11/11 07:09:12;;;;;;;15.93;8.43;;;;;;;;;;5032380;28;20037;-78
2023/11/11 07:11:38;;;;;;;19.77;9.07;;;;;;;;;;5031712;28;20020;-78
2023/11/11 07:14:06;;;;;;;14.70;7.50;;;;;;;;;;5013808;28;20041;-78
2023/11/11 07:16:33;;;;;;;21.00;8.37;;;;;;;;;;5016723;28;20018;-78
2023/11/11 07:19:01;;;;;;;19.37;9.53;;;;;;;;;;5016858;28;20034;-78
2023/11/11 07:21:27;;;;;;;19.93;9.07;;;;;;;;;;5032261;28;20007;-77
2023/11/11 07:23:54;;;;;;;16.23;8.70;;;;;;;;;;5032335;28;20110;-78
2023/11/11 07:26:22;;;;;;;17.93;9.27;;;;;;;;;;5011771;28;20032;-78
2023/11/11 07:28:49;;;;;;;20.87;10.43;;;;;;;;;;5017421;28;20030;-78
2023/11/11 07:31:23;;;;;;;19.47;9.47;;;;;;;;;;5013578;28;20098;-79
2023/11/11 07:33:54;;;;;;;18.60;9.83;;;;;;;;;;5031041;28;20018;-77
2023/11/11 07:36:20;;;;;;;23.03;9.60;;;;;;;;;;5031738;28;20086;-78
2023/11/11 07:38:46;;;;;;;22.13;9.40;;;;;;;;;;5032130;28;20257;-77
2023/11/11 07:41:18;;;;;;;20.23;9.77;;;;;;;;;;5012366;28;20025;-77
2023/11/11 07:43:44;;;;;;;23.77;10.23;;;;;;;;;;5032315;28;20101;-78
2023/11/11 07:46:12;;;;;;;28.07;11.63;;;;;;;;;;5013799;28;20038;-77
2023/11/11 07:48:41;;;;;;;22.07;9.63;;;;;;;;;;5031367;28;20112;-77
2023/11/11 07:51:09;;;;;;;20.77;10.60;;;;;;;;;;5032098;28;20023;-77
2023/11/11 07:59:35;;;;;;;22.07;11.33;;;;;;;;;;4996265;28;20018;-78
2023/11/11 08:02:18;;;;;;;27.90;12.10;;;;;;;;;;5014968;28;20031;-77
2023/11/11 08:04:54;;;;;;;;;;;;;;;;;;;;;
2023/11/11 08:10:41;;;;;;;24.00;11.07;;;;;;;;;;4976900;28;20178;-78
2023/11/11 08:13:33;;;;;;;31.60;11.73;;;;;;;;;;4977183;28;20027;-79
2023/11/11 08:16:00;;;;;;;31.88;12.10;;;;;;;;;;5009341;23;20133;-79
2023/11/11 08:18:26;;;;;;;26.73;11.43;;;;;;;;;;5037366;28;20025;-77
2023/11/11 08:20:52;;;;;;;24.00;10.80;;;;;;;;;;5036508;28;20056;-78
2023/11/11 08:23:19;;;;;;;25.13;11.10;;;;;;;;;;5036841;28;20044;-77
2023/11/11 08:25:45;;;;;;;20.23;10.83;;;;;;;;;;5033960;28;20020;-77
2023/11/11 08:28:13;;;;;;;22.77;9.60;;;;;;;;;;5051563;28;20022;-77
2023/11/11 08:30:40;;;;;;;21.50;9.60;;;;;;;;;;5032576;28;20254;-77
2023/11/11 08:33:08;;;;;;;24.03;11.27;;;;;;;;;;5034898;28;20033;-77
2023/11/11 08:35:34;;;;;;;20.00;10.27;;;;;;;;;;5052222;28;20015;-78
2023/11/11 08:38:00;;;;;;;28.57;11.10;;;;;;;;;;5052650;28;20009;-77
2023/11/11 08:40:29;;;;;;;23.43;10.07;;;;;;;;;;5034371;28;20028;-78
2023/11/11 08:42:55;;;;;;;19.60;9.57;;;;;;;;;;5031949;28;21190;-78
2023/11/11 08:45:24;;;;;;;16.50;8.93;;;;;;;;;;5027626;28;20042;-76
2023/11/11 08:47:53;;;;;;;24.37;9.20;;;;;;;;;;5030258;28;20094;-76
2023/11/11 08:50:19;;;;;;;22.17;9.40;;;;;;;;;;5028142;28;20034;-77
2023/11/11 08:52:45;;;;;;;23.37;8.80;;;;;;;;;;5029767;28;20034;-78
2023/11/11 08:55:11;;;;;;;21.57;9.07;;;;;;;;;;5030179;28;20026;-77
2023/11/11 08:57:38;;;;;;;35.97;9.10;;;;;;;;;;5026660;28;20014;-76
2023/11/11 09:00:23;;;;;;;20.20;8.07;;;;;;;;;;5032939;28;20255;-75
2023/11/11 09:02:51;;;;;;;20.77;7.57;;;;;;;;;;5031022;28;20097;-78
2023/11/11 09:05:20;;;;;;;25.20;8.33;;;;;;;;;;5029460;28;20084;-77
2023/11/11 09:07:46;;;;;;;17.83;7.87;;;;;;;;;;5027905;28;20037;-77
2023/11/11 09:10:12;;;;;;;21.47;7.53;;;;;;;;;;5028596;28;20219;-77
2023/11/11 09:12:38;;;;;;;17.67;7.23;;;;;;;;;;5028843;28;20048;-76
2023/11/11 09:15:05;;;;;;;18.10;8.50;;;;;;;;;;5028377;28;20014;-77
2023/11/11 09:17:33;;;;;;;14.73;7.30;;;;;;;;;;5030127;28;20045;-77
2023/11/11 09:20:00;;;;;;;20.23;7.10;;;;;;;;;;5027821;28;20034;-77
2023/11/11 09:22:27;;;;;;;18.13;7.67;;;;;;;;;;5028364;28;20037;-78
2023/11/11 09:24:53;;;;;;;20.13;6.87;;;;;;;;;;5032590;28;20025;-77
2023/11/11 09:27:22;;;;;;;19.23;7.47;;;;;;;;;;5032343;28;20061;-79
2023/11/11 09:29:48;;;;;;;16.13;6.57;;;;;;;;;;5030140;28;20073;-77
2023/11/11 09:32:14;;;;;;;20.43;6.40;;;;;;;;;;5024544;28;20187;-78
2023/11/11 09:34:50;;;;;;;17.23;7.27;;;;;;;;;;5027884;28;20057;-77
2023/11/11 09:37:17;;;;;;;19.00;7.67;;;;;;;;;;5031593;28;20042;-77
2023/11/11 09:39:45;;;;;;;20.10;6.43;;;;;;;;;;5031686;28;20026;-77
2023/11/11 09:42:14;;;;;;;14.97;6.20;;;;;;;;;;5028468;28;20100;-77
2023/11/11 09:44:40;;;;;;;11.97;5.40;;;;;;;;;;5026650;28;20093;-77
2023/11/11 09:47:12;;;;;;;12.47;6.30;;;;;;;;;;5026271;28;20036;-77
2023/11/11 09:49:40;;;;;;;15.23;7.38;;;;;;;;;;5032168;28;20022;-76
2023/11/11 09:52:06;;;;;;;13.40;4.93;;;;;;;;;;5029307;28;20113;-77
2023/11/11 09:54:35;;;;;;;13.67;5.37;;;;;;;;;;5026865;28;20026;-76
2023/11/11 09:57:04;;;;;;;15.80;5.37;;;;;;;;;;5030764;28;20018;-76
2023/11/11 09:59:34;;;;;;;10.13;4.93;;;;;;;;;;5027173;28;20015;-76
2023/11/11 10:02:02;;;;;;;9.57;5.47;;;;;;;;;;5026776;28;20068;-77
2023/11/11 10:04:28;;;;;;;10.27;5.10;;;;;;;;;;5025318;28;20019;-78
2023/11/11 10:07:01;;;;;;;14.20;5.50;;;;;;;;;;5027557;28;20068;-78
2023/11/11 10:09:27;;;;;;;15.10;4.57;;;;;;;;;;5027390;28;20026;-77
2023/11/11 10:11:54;;;;;;;12.87;4.63;;;;;;;;;;5026225;28;20030;-77
2023/11/11 10:14:21;;;;;;;14.40;4.50;;;;;;;;;;5030144;28;20033;-77
2023/11/11 10:16:58;;;;;;;12.17;5.07;;;;;;;;;;5029923;28;20070;-76
2023/11/11 10:19:28;;;;;;;17.43;4.63;;;;;;;;;;5028555;28;20014;-77
2023/11/11 10:22:00;;;;;;;12.77;4.20;;;;;;;;;;5030418;28;20034;-77
2023/11/11 10:24:28;;;;;;;10.63;4.72;;;;;;;;;;5028176;28;20045;-76
2023/11/11 10:26:54;;;;;;;11.97;4.60;;;;;;;;;;5029116;28;20021;-75
2023/11/11 10:29:22;;;;;;;9.20;3.70;;;;;;;;;;5027300;28;20037;-76
2023/11/11 10:31:51;;;;;;;9.43;4.23;;;;;;;;;;5028861;28;20034;-75
2023/11/11 10:34:18;;;;;;;7.90;4.00;;;;;;;;;;5027739;28;20040;-77
2023/11/11 10:36:51;;;;;;;10.07;3.73;;;;;;;;;;5027536;28;20021;-76
2023/11/11 10:39:17;;;;;;;15.17;4.60;;;;;;;;;;5030675;28;20014;-76
2023/11/11 10:41:43;;;;;;;7.17;3.50;;;;;;;;;;5028974;28;20026;-77
2023/11/11 10:44:12;;;;;;;9.97;3.10;;;;;;;;;;5026546;28;20049;-78
2023/11/11 10:46:39;;;;;;;12.53;4.70;;;;;;;;;;5026347;28;20018;-79
2023/11/11 10:49:08;;;;;;;7.20;3.40;;;;;;;;;;5037556;28;20137;-76
2023/11/11 10:51:34;;;;;;;7.67;3.20;;;;;;;;;;5037863;28;20021;-77
2023/11/11 10:54:03;;;;;;;8.57;3.60;;;;;;;;;;5037811;28;20038;-78
2023/11/11 10:56:29;;;;;;;7.27;2.70;;;;;;;;;;5054316;28;20034;-76
2023/11/11 10:58:56;;;;;;;7.33;3.47;;;;;;;;;;5031484;28;20007;-78
2023/11/11 11:01:23;;;;;;;9.07;2.67;;;;;;;;;;5037768;28;20014;-75
2023/11/11 11:03:49;;;;;;;8.90;3.50;;;;;;;;;;5044792;28;20018;-76
2023/11/11 11:06:37;;;;;;;20.17;4.20;;;;;;;;;;5031255;28;20010;-77
2023/11/11 11:09:17;;;;;;;7.57;2.63;;;;;;;;;;5037571;28;20014;-76
2023/11/11 11:12:17;;;;;;;;;;;;;;;;;;;;;
2023/11/11 11:14:55;;;;;;;7.87;2.50;;;;;;;;;;5034134;28;20010;-80
2023/11/11 11:17:43;;;;;;;8.67;2.70;;;;;;;;;;5031989;28;20025;-77
2023/11/11 11:20:17;;;;;;;10.27;3.10;;;;;;;;;;5037582;28;20021;-76
2023/11/11 11:22:47;;;;;;;10.00;2.57;;;;;;;;;;5037878;28;20058;-78
2023/11/11 11:25:36;;;;;;;10.97;3.00;;;;;;;;;;5037786;28;20082;-76
2023/11/11 11:28:09;;;;;;;8.17;2.97;;;;;;;;;;5037242;28;20014;-78
2023/11/11 11:30:35;;;;;;;8.93;2.63;;;;;;;;;;5033866;28;20033;-76
2023/11/11 11:33:06;;;;;;;7.47;2.70;;;;;;;;;;5050976;28;20021;-76
2023/11/11 11:35:37;;;;;;;5.63;2.10;;;;;;;;;;5040846;28;20057;-77
2023/11/11 11:38:05;;;;;;;6.13;1.90;;;;;;;;;;5041633;28;20066;-76
2023/11/11 11:40:39;;;;;;;6.67;2.90;;;;;;;;;;5034679;28;20017;-78
2023/11/11 11:43:10;;;;;;;5.23;2.10;;;;;;;;;;5040792;28;20028;-79
2023/11/11 11:45:40;;;;;;;9.50;2.42;;;;;;;;;;5039200;28;20041;-76
2023/11/11 11:48:08;;;;;;;7.03;1.90;;;;;;;;;;5041087;28;20018;-76
2023/11/11 11:50:37;;;;;;;7.00;1.93;;;;;;;;;;5037744;28;20011;-77
2023/11/11 11:53:06;;;;;;;8.93;1.90;;;;;;;;;;5040645;28;20021;-76
2023/11/11 11:55:41;;;;;;;5.90;2.27;;;;;;;;;;5035183;28;20022;-76
2023/11/11 11:58:09;;;;;;;9.10;2.00;;;;;;;;;;5031040;28;20030;-75
2023/11/11 12:00:38;;;;;;;4.93;2.10;;;;;;;;;;5030787;28;20010;-77
2023/11/11 12:03:04;;;;;;;6.70;2.00;;;;;;;;;;5040519;28;20113;-76
2023/11/11 12:05:33;;;;;;;10.47;2.53;;;;;;;;;;5040548;28;20032;-76
2023/11/11 12:08:02;;;;;;;5.87;2.30;;;;;;;;;;5035004;28;20010;-77
2023/11/11 12:10:42;;;;;;;3.67;1.73;;;;;;;;;;5040970;28;20002;-76
2023/11/11 12:13:12;;;;;;;5.27;1.87;;;;;;;;;;5039382;28;20021;-77
2023/11/11 12:15:40;;;;;;;3.27;1.67;;;;;;;;;;5040200;28;20018;-76
2023/11/11 12:18:09;;;;;;;10.17;2.50;;;;;;;;;;5037889;28;20100;-77
2023/11/11 12:20:52;;;;;;;;;;;;;;;;;;;;;
2023/11/11 12:23:19;;;;;;;;;;;;;;;;;;5030729;28;20053;-76
2023/11/11 12:25:47;;;;;;;6.63;1.30;;;;;;;;;;5033310;28;20042;-77
2023/11/11 12:28:13;;;;;;;9.03;1.40;;;;;;;;;;5030911;28;20022;-75
2023/11/11 12:30:40;;;;;;;5.90;1.37;;;;;;;;;;5030846;28;20036;-77
2023/11/11 12:33:09;;;;;;;4.00;1.13;;;;;;;;;;5029831;28;20089;-77
2023/11/11 12:35:37;;;;;;;4.17;1.40;;;;;;;;;;5030247;28;20057;-77
2023/11/11 12:38:28;;;;;;;4.90;1.47;;;;;;;;;;5029711;28;20030;-76
2023/11/11 12:40:54;;;;;;;6.77;1.30;;;;;;;;;;5028726;28;20014;-77
2023/11/11 12:43:26;;;;;;;4.57;1.77;;;;;;;;;;5029205;28;20161;-76
2023/11/11 12:45:56;;;;;;;6.83;1.93;;;;;;;;;;5029036;28;20018;-76
2023/11/11 12:48:24;;;;;;;4.80;1.33;;;;;;;;;;5032600;28;20014;-77
2023/11/11 12:50:52;;;;;;;3.83;2.00;;;;;;;;;;5033762;28;20030;-78
2023/11/11 12:53:20;;;;;;;5.50;1.43;;;;;;;;;;5031446;28;20021;-77
2023/11/11 12:55:47;;;;;;;4.87;1.00;;;;;;;;;;5037639;28;20029;-77
2023/11/11 12:58:22;;;;;;;8.13;1.60;;;;;;;;;;5038707;28;20048;-77
2023/11/11 13:01:01;;;;;;;5.67;1.40;;;;;;;;;;5034748;28;20018;-76
2023/11/11 13:03:28;;;;;;;4.67;1.37;;;;;;;;;;5039606;28;20025;-77
2023/11/11 13:05:57;;;;;;;5.37;1.33;;;;;;;;;;5036433;28;20025;-77
2023/11/11 13:08:26;;;;;;;3.30;1.20;;;;;;;;;;5035637;28;20061;-76
2023/11/11 13:10:53;;;;;;;8.13;1.33;;;;;;;;;;5033703;28;20191;-77
2023/11/11 13:13:27;;;;;;;5.67;1.50;;;;;;;;;;5035733;28;20046;-78
2023/11/11 13:15:54;;;;;;;9.20;1.50;;;;;;;;;;5033148;28;20033;-77
2023/11/11 13:18:24;;;;;;;5.30;1.30;;;;;;;;;;5039150;28;20025;-77
2023/11/11 13:20:50;;;;;;;4.10;0.87;;;;;;;;;;5034849;28;20040;-77
2023/11/11 13:23:18;;;;;;;4.40;1.13;;;;;;;;;;5038011;28;20072;-77
2023/11/11 13:25:44;;;;;;;5.80;1.27;;;;;;;;;;5037064;28;20025;-78
2023/11/11 13:28:12;;;;;;;2.63;0.90;;;;;;;;;;5032591;28;20030;-77
2023/11/11 13:30:38;;;;;;;0.85;0.57;;;;;;;;;;5034273;28;20018;-77
2023/11/11 13:33:07;;;;;;;2.90;0.80;;;;;;;;;;5032161;28;20011;-77
2023/11/11 13:35:33;;;;;;;4.57;0.25;;;;;;;;;;5031436;28;20049;-78
2023/11/11 13:38:01;;;;;;;2.33;0.60;;;;;;;;;;5031586;28;20028;-77
2023/11/11 13:40:34;;;;;;;1.83;0.50;;;;;;;;;;5029869;28;20097;-76
2023/11/11 13:43:00;;;;;;;0.50;0.30;;;;;;;;;;5030584;28;20050;-77
2023/11/11 13:45:30;;;;;;;2.05;0.45;;;;;;;;;;5028912;28;20030;-77
2023/11/11 13:47:58;;;;;;;1.38;0.40;;;;;;;;;;5030265;28;20034;-77
2023/11/11 13:50:26;;;;;;;1.02;0.30;;;;;;;;;;5031141;28;20182;-76
2023/11/11 13:52:53;;;;;;;2.05;0.63;;;;;;;;;;5030345;28;20014;-77
2023/11/11 13:55:26;;;;;;;3.17;0.40;;;;;;;;;;5030030;28;20018;-77
2023/11/11 13:57:53;;;;;;;2.20;0.70;;;;;;;;;;5031801;28;20093;-77
2023/11/11 14:00:29;;;;;;;2.55;0.90;;;;;;;;;;5048151;28;20061;-77
2023/11/11 14:03:08;;;;;;;2.80;0.90;;;;;;;;;;5032450;28;20030;-77
2023/11/11 14:05:38;;;;;;;2.23;0.80;;;;;;;;;;5035441;28;20018;-79
2023/11/11 14:08:07;;;;;;;2.87;0.57;;;;;;;;;;5033680;28;20025;-77
2023/11/11 14:10:35;;;;;;;4.53;0.70;;;;;;;;;;5038918;28;20093;-77
2023/11/11 14:13:01;;;;;;;2.37;1.13;;;;;;;;;;5034254;28;20141;-76
2023/11/11 14:15:38;;;;;;;1.90;0.87;;;;;;;;;;5034049;28;20034;-76
2023/11/11 14:18:04;;;;;;;2.83;0.93;;;;;;;;;;5032822;28;20045;-76
2023/11/11 14:20:30;;;;;;;8.17;1.40;;;;;;;;;;5034324;28;20058;-76
2023/11/11 14:22:56;;;;;;;9.67;1.20;;;;;;;;;;5032767;28;20056;-77
2023/11/11 14:25:23;;;;;;;5.37;1.00;;;;;;;;;;5034250;28;20013;-77
2023/11/11 14:27:49;;;;;;;4.10;1.27;;;;;;;;;;5037942;28;20018;-77
2023/11/11 14:30:16;;;;;;;4.43;1.37;;;;;;;;;;5035626;28;20022;-77
2023/11/11 14:32:50;;;;;;;2.33;0.87;;;;;;;;;;5035647;28;20029;-76
2023/11/11 14:35:16;;;;;;;6.00;1.00;;;;;;;;;;5036605;28;20010;-76
2023/11/11 14:37:45;;;;;;;4.80;1.23;;;;;;;;;;5033743;28;20022;-77
2023/11/11 14:40:15;;;;;;;4.03;1.43;;;;;;;;;;5035519;28;20052;-77
2023/11/11 14:42:42;;;;;;;3.47;1.13;;;;;;;;;;5035310;28;20042;-77
2023/11/11 14:45:11;;;;;;;2.37;1.13;;;;;;;;;;5028900;28;20014;-77
2023/11/11 14:47:41;;;;;;;4.37;1.20;;;;;;;;;;5026129;28;20053;-78
2023/11/11 14:50:08;;;;;;;2.73;1.27;;;;;;;;;;5030144;28;20077;-76
2023/11/11 14:52:36;;;;;;;3.67;1.03;;;;;;;;;;5025444;28;20058;-76
2023/11/11 14:55:04;;;;;;;1.33;0.70;;;;;;;;;;5026067;28;20041;-77
2023/11/11 14:57:31;;;;;;;2.13;0.70;;;;;;;;;;5032257;28;20045;-77
2023/11/11 14:59:57;;;;;;;2.27;0.90;;;;;;;;;;5030844;28;20025;-76
2023/11/11 15:02:35;;;;;;;1.80;0.80;;;;;;;;;;5030117;28;20038;-77
2023/11/11 15:05:05;;;;;;;4.97;1.30;;;;;;;;;;5029320;28;20026;-77
2023/11/11 15:07:33;;;;;;;2.77;0.73;;;;;;;;;;5031067;28;20068;-76
2023/11/11 15:10:01;;;;;;;2.70;0.80;;;;;;;;;;5029084;28;20126;-76
2023/11/11 15:12:36;;;;;;;2.93;1.17;;;;;;;;;;5031540;28;20018;-77
2023/11/11 15:15:03;;;;;;;6.07;1.23;;;;;;;;;;5030178;28;20124;-77
2023/11/11 15:17:29;;;;;;;4.10;1.10;;;;;;;;;;5032954;28;20014;-77
2023/11/11 15:19:55;;;;;;;4.57;0.90;;;;;;;;;;5031216;28;20022;-76